Anacortes, Washington
Current Conditions -  °F | °C
As of 12:56 PM on Friday 24 Oct 2014 (Local Time) from KNUW Reporting Station
Broken Clouds Broken Clouds  
Wind Chill: 15°   Ceiling: 24000
Heat Index: 15°   Visibility: 10mi
Dew Point:   Wind: 9mph
Humidity: 60%   Direction: 80°E
Pressure: 30.02"   Gusts: NA
Location:  48.51°N, 122.61°W
Report Text: KNUW 241956Z 08008KT 10SM FEW012 SCT036 SCT090 BKN240 15/07 A3002 RMK AO2 SLP169 T01500072 $
Loading
Personal Weather Stations






























Interactive Weather Map
Tropical Storm Tracking
New forecast layout! Learn more

10-Day Weather Forecast

Advertisements
Track Severe Weather on mobile